Time;durP1;ratioP1;P1;durP2;ratioP2;P2;SDS_P1;SDS_P2;PMS_P1;PMS_P2;Temp;Humidity;BMP_temperature;BMP_pressure;BME280_temperature;BME280_humidity;BME280_pressure;Samples;Min_cycle;Max_cycle;Signal;HPM_P1;HPM_P2
2022/06/28 00:00:36;;;;;;;3.70;1.50;;;;;;;18.39;58.81;101990.31;5114391;27;20063;-63
2022/06/28 00:03:04;;;;;;;2.95;1.70;;;;;;;18.37;58.90;101995.19;5121473;28;20048;-63
2022/06/28 00:05:32;;;;;;;2.20;1.48;;;;;;;18.37;59.00;101997.06;5127521;27;20108;-63
2022/06/28 00:08:02;;;;;;;2.42;1.60;;;;;;;18.34;58.74;101992.13;5112990;27;20083;-63
2022/06/28 00:10:30;;;;;;;3.38;1.60;;;;;;;18.33;58.87;101980.41;5111019;28;20065;-63
2022/06/28 00:12:59;;;;;;;2.88;1.40;;;;;;;18.34;58.82;101981.22;5119547;28;20062;-63
2022/06/28 00:18:12;;;;;;;2.75;1.80;;;;;;;18.30;58.80;101982.78;5112453;28;20531;-63
2022/06/28 00:20:40;;;;;;;2.53;1.40;;;;;;;18.28;58.86;101979.50;5125514;27;20044;-63
2022/06/28 00:23:09;;;;;;;2.38;1.80;;;;;;;18.26;58.70;101985.19;5118380;27;20075;-64
2022/06/28 00:25:37;;;;;;;2.90;1.55;;;;;;;18.25;58.68;101985.44;5113334;28;20083;-63
2022/06/28 00:28:05;;;;;;;2.47;1.40;;;;;;;18.23;58.83;101985.66;5114658;27;20050;-63
2022/06/28 00:30:33;;;;;;;3.13;2.08;;;;;;;18.24;58.78;101994.66;5107730;27;20430;-63
2022/06/28 00:33:00;;;;;;;2.15;1.58;;;;;;;18.21;58.46;101983.19;5118314;28;20055;-64
2022/06/28 00:35:28;;;;;;;4.97;1.35;;;;;;;18.20;58.65;101995.16;5113441;28;20499;-63
2022/06/28 00:37:56;;;;;;;2.35;1.42;;;;;;;18.17;58.73;101979.31;5117059;28;20071;-63
2022/06/28 00:40:25;;;;;;;5.15;1.30;;;;;;;18.13;58.63;101985.50;5126019;27;20082;-63
2022/06/28 00:42:53;;;;;;;3.00;1.75;;;;;;;18.15;58.57;102002.41;5102055;28;20127;-63
2022/06/28 00:45:21;;;;;;;4.35;1.70;;;;;;;18.16;58.58;102006.75;5111016;28;20048;-64
2022/06/28 00:47:50;;;;;;;5.55;1.45;;;;;;;18.16;58.51;102002.16;5120186;28;20050;-63
2022/06/28 00:50:18;;;;;;;3.75;1.80;;;;;;;18.14;58.46;102004.28;5120950;27;20040;-64
2022/06/28 00:52:59;;;;;;;2.40;1.58;;;;;;;18.13;58.60;102005.34;5121164;27;20036;-64
2022/06/28 00:55:28;;;;;;;4.53;1.60;;;;;;;18.11;58.63;102002.06;5115711;27;20047;-63
2022/06/28 00:57:56;;;;;;;6.10;1.83;;;;;;;18.11;58.60;102004.78;5115959;28;20071;-64
2022/06/28 01:00:24;;;;;;;4.05;1.98;;;;;;;18.08;58.65;101999.81;5127013;27;20039;-63
2022/06/28 01:02:52;;;;;;;3.70;1.60;;;;;;;18.09;58.46;102008.81;5121968;27;20043;-64
2022/06/28 01:05:21;;;;;;;1.98;1.40;;;;;;;18.07;58.35;101991.91;5108174;28;20051;-64
2022/06/28 01:07:49;;;;;;;4.05;1.70;;;;;;;18.06;58.51;101992.97;5118354;28;20519;-64
2022/06/28 01:10:16;;;;;;;1.80;1.35;;;;;;;18.03;58.19;101996.19;5115498;27;20044;-64
2022/06/28 01:12:45;;;;;;;2.38;1.08;;;;;;;18.03;58.66;101993.47;5104534;28;20080;-64
2022/06/28 01:15:13;;;;;;;4.18;1.77;;;;;;;18.03;58.44;102001.63;5113618;28;20083;-63
2022/06/28 01:17:41;;;;;;;2.17;1.42;;;;;;;18.03;58.35;101998.91;5120296;28;20040;-63
2022/06/28 01:20:10;;;;;;;2.65;1.70;;;;;;;18.00;58.25;102004.84;5114404;28;20048;-63
2022/06/28 01:22:41;;;;;;;3.60;1.85;;;;;;;18.00;58.46;102010.28;5110178;28;20043;-64
2022/06/28 01:25:10;;;;;;;3.33;1.70;;;;;;;17.99;58.27;102009.44;5102775;28;20463;-64
2022/06/28 01:27:40;;;;;;;4.15;1.85;;;;;;;17.98;58.50;102017.84;5117146;28;20272;-64
2022/06/28 01:30:10;;;;;;;5.20;1.90;;;;;;;17.97;58.19;102016.19;5109754;28;20059;-64
2022/06/28 01:32:38;;;;;;;2.42;1.17;;;;;;;17.91;58.13;102011.72;5125016;28;20066;-63
2022/06/28 01:35:08;;;;;;;2.17;1.40;;;;;;;17.92;58.35;102014.19;5109487;28;20162;-63
2022/06/28 01:37:36;;;;;;;2.95;1.70;;;;;;;17.91;58.24;102019.88;5108342;28;20069;-63
2022/06/28 01:40:08;;;;;;;4.28;1.80;;;;;;;17.88;58.25;102016.56;5104473;28;20086;-63
2022/06/28 01:42:36;;;;;;;6.22;2.03;;;;;;;17.88;58.33;102018.47;5113364;28;20048;-63
2022/06/28 01:45:05;;;;;;;2.28;1.30;;;;;;;17.86;58.10;102013.28;5108100;28;20065;-63
2022/06/28 01:47:37;;;;;;;6.47;2.78;;;;;;;17.84;58.27;102020.84;5124937;28;20106;-64
2022/06/28 01:50:06;;;;;;;3.83;1.60;;;;;;;17.79;57.96;102009.03;5116956;28;20050;-63
2022/06/28 01:52:33;;;;;;;6.03;2.28;;;;;;;17.83;58.11;102023.81;5132033;28;20056;-63
2022/06/28 01:55:01;;;;;;;5.22;1.50;;;;;;;17.81;58.19;102017.78;5119670;28;20142;-63
2022/06/28 01:57:30;;;;;;;4.55;1.65;;;;;;;17.79;58.12;102023.47;5110077;28;20087;-63
2022/06/28 01:59:58;;;;;;;3.42;1.35;;;;;;;17.78;58.18;102026.44;5117791;28;20043;-63
2022/06/28 02:02:26;;;;;;;2.65;1.38;;;;;;;17.77;58.09;102022.06;5110193;28;20047;-63
2022/06/28 02:04:53;;;;;;;3.28;1.33;;;;;;;17.75;58.05;102030.44;5122619;28;20043;-63
2022/06/28 02:07:21;;;;;;;3.65;1.55;;;;;;;17.74;58.00;102020.66;5105579;28;20051;-63
2022/06/28 02:09:49;;;;;;;2.63;1.42;;;;;;;17.73;58.10;102020.88;5115396;28;20078;-63
2022/06/28 02:12:17;;;;;;;3.08;1.75;;;;;;;17.72;58.00;102030.09;5117106;28;20078;-63
2022/06/28 02:14:47;;;;;;;3.58;1.45;;;;;;;17.70;57.92;102027.63;5114868;28;20058;-63
2022/06/28 02:17:14;;;;;;;3.13;1.50;;;;;;;17.69;58.01;102034.13;5117409;28;20090;-63
2022/06/28 02:19:42;;;;;;;2.40;1.35;;;;;;;17.68;57.92;102037.91;5117283;27;20579;-63
2022/06/28 02:22:10;;;;;;;5.88;1.80;;;;;;;17.66;58.01;102042.78;5121868;27;20549;-64
2022/06/28 02:24:38;;;;;;;4.25;1.70;;;;;;;17.66;57.86;102044.66;5133755;27;20085;-63
2022/06/28 02:27:05;;;;;;;1.98;1.30;;;;;;;17.65;57.83;102051.97;5110338;27;20048;-63
2022/06/28 02:29:33;;;;;;;2.53;1.63;;;;;;;17.61;57.72;102049.97;5117687;28;20571;-63
2022/06/28 02:32:03;;;;;;;2.42;1.33;;;;;;;17.63;57.96;102058.69;5113765;27;20135;-62
2022/06/28 02:42:47;;;;;;;2.15;1.30;;;;;;;17.58;57.83;102059.41;5120754;28;20504;-63
2022/06/28 02:45:15;;;;;;;3.88;1.30;;;;;;;17.59;57.72;102069.22;5120673;27;20088;-63
2022/06/28 02:47:44;;;;;;;3.63;1.30;;;;;;;17.57;57.60;102074.06;5117636;28;20074;-63
2022/06/28 02:50:12;;;;;;;3.97;1.55;;;;;;;17.55;57.57;102073.50;5119742;28;20068;-64
2022/06/28 02:52:40;;;;;;;4.72;1.85;;;;;;;17.51;57.61;102073.13;5114660;27;20047;-64
2022/06/28 02:55:09;;;;;;;2.70;1.30;;;;;;;17.51;57.61;102073.13;5120772;27;20059;-63
2022/06/28 02:57:38;;;;;;;4.60;1.40;;;;;;;17.41;57.71;102064.75;5123841;28;20052;-63
2022/06/28 03:00:09;;;;;;;3.80;1.30;;;;;;;17.50;57.62;102084.25;5114233;27;20051;-63
2022/06/28 03:02:37;;;;;;;1.65;1.05;;;;;;;17.45;57.55;102068.66;5118532;27;20078;-63
2022/06/28 03:05:09;;;;;;;2.60;1.13;;;;;;;17.48;57.57;102084.47;5121395;27;20110;-63
2022/06/28 03:07:37;;;;;;;3.67;1.40;;;;;;;17.42;57.47;102077.28;5125772;27;20117;-63
2022/06/28 03:10:07;;;;;;;1.90;1.27;;;;;;;17.42;57.48;102082.72;5127284;27;20047;-63
2022/06/28 03:12:35;;;;;;;2.33;1.40;;;;;;;17.42;57.58;102095.47;5112172;27;20036;-63
2022/06/28 03:15:04;;;;;;;5.18;1.58;;;;;;;17.40;57.52;102095.72;5109191;28;20071;-63
2022/06/28 03:17:32;;;;;;;2.80;1.35;;;;;;;17.39;57.41;102098.66;5108221;27;20079;-62
2022/06/28 03:20:00;;;;;;;2.17;1.30;;;;;;;17.37;57.45;102098.91;5111764;27;20040;-62
2022/06/28 03:22:30;;;;;;;4.25;1.58;;;;;;;17.36;57.46;102105.41;5116372;28;20079;-62
2022/06/28 03:24:57;;;;;;;2.58;1.40;;;;;;;17.35;57.63;102106.47;5118722;27;20481;-62
2022/06/28 03:27:25;;;;;;;2.53;1.38;;;;;;;17.34;57.30;102109.41;5113349;28;20048;-62
2022/06/28 03:29:53;;;;;;;3.38;1.20;;;;;;;17.32;57.36;102106.97;5110748;27;20079;-62
2022/06/28 03:32:20;;;;;;;2.13;1.10;;;;;;;17.31;57.37;102108.03;5117004;28;20089;-63
2022/06/28 03:34:48;;;;;;;2.95;1.42;;;;;;;17.28;57.37;102111.22;5120929;28;20048;-63
2022/06/28 03:37:16;;;;;;;6.03;1.63;;;;;;;17.28;57.30;102107.69;5119020;27;20082;-64
2022/06/28 03:39:45;;;;;;;4.00;1.80;;;;;;;17.28;57.26;102113.94;5114153;27;20091;-64
2022/06/28 03:42:13;;;;;;;6.20;1.92;;;;;;;17.27;57.21;102116.91;5121360;28;20047;-63
2022/06/28 03:44:41;;;;;;;3.88;1.77;;;;;;;17.24;57.38;102119.03;5112001;28;20047;-65
2022/06/28 03:47:08;;;;;;;3.03;1.55;;;;;;;17.25;57.27;102117.13;5118110;28;20055;-63
2022/06/28 03:49:36;;;;;;;6.38;2.08;;;;;;;17.23;57.29;102111.94;5123552;27;20071;-63
2022/06/28 03:52:04;;;;;;;3.05;1.20;;;;;;;17.22;57.35;102113.00;5116641;27;20067;-63
2022/06/28 03:54:32;;;;;;;3.35;1.55;;;;;;;17.20;57.30;102114.28;5119706;27;20047;-63
2022/06/28 03:57:02;;;;;;;2.67;1.10;;;;;;;17.18;57.28;102117.25;5118358;27;20050;-63
2022/06/28 03:59:29;;;;;;;5.00;2.38;;;;;;;17.18;57.26;102122.69;5118338;28;20055;-63
2022/06/28 04:01:57;;;;;;;4.10;1.50;;;;;;;17.16;57.27;102115.81;5106951;27;20090;-62
2022/06/28 04:04:25;;;;;;;2.72;1.27;;;;;;;17.15;57.23;102123.16;5128434;27;20048;-63
2022/06/28 04:06:53;;;;;;;3.35;1.65;;;;;;;17.14;57.23;102115.22;5110580;27;20069;-63
2022/06/28 04:09:21;;;;;;;4.90;1.40;;;;;;;17.12;57.12;102109.19;5119617;27;20074;-63
2022/06/28 04:11:48;;;;;;;9.15;1.65;;;;;;;17.11;57.25;102112.97;5110885;28;20181;-63
2022/06/28 04:14:17;;;;;;;2.50;1.55;;;;;;;17.09;57.22;102106.94;5119105;27;20105;-63
2022/06/28 04:16:45;;;;;;;4.45;1.40;;;;;;;17.07;57.25;102109.06;5116737;27;20060;-65
2022/06/28 04:19:13;;;;;;;3.55;1.75;;;;;;;17.06;57.15;102107.41;5114301;28;20052;-64
2022/06/28 04:21:41;;;;;;;3.38;1.77;;;;;;;17.04;57.30;102115.81;5110139;28;20074;-63
2022/06/28 04:24:09;;;;;;;4.55;1.23;;;;;;;17.04;57.35;102118.53;5120177;28;20063;-62
2022/06/28 04:26:36;;;;;;;6.78;2.03;;;;;;;17.03;57.42;102111.44;5104354;27;20044;-63
2022/06/28 04:29:04;;;;;;;5.85;1.67;;;;;;;17.02;57.32;102115.22;5110034;28;20146;-63
2022/06/28 04:31:33;;;;;;;6.15;1.95;;;;;;;17.02;57.32;102115.22;5114128;28;20044;-63
2022/06/28 04:34:02;;;;;;;3.55;1.50;;;;;;;17.00;57.34;102117.34;5111087;27;20440;-63
2022/06/28 04:36:30;;;;;;;3.25;1.23;;;;;;;17.00;57.40;102117.34;5105225;28;20050;-63
2022/06/28 04:38:58;;;;;;;2.55;1.30;;;;;;;16.97;57.36;102125.94;5105451;28;20046;-64
2022/06/28 04:41:25;;;;;;;4.57;1.40;;;;;;;16.96;57.48;102115.31;5109684;27;20144;-64
2022/06/28 04:43:54;;;;;;;3.30;1.55;;;;;;;16.98;57.52;102118.63;5104101;28;20083;-64
2022/06/28 04:46:22;;;;;;;3.13;1.40;;;;;;;16.97;57.48;102116.97;5103126;28;20096;-62
2022/06/28 04:48:51;;;;;;;4.15;1.67;;;;;;;16.94;57.44;102117.44;5100545;28;20054;-65
2022/06/28 04:51:19;;;;;;;5.65;1.70;;;;;;;16.93;57.50;102116.59;5104528;28;20044;-66
2022/06/28 04:53:48;;;;;;;8.05;1.60;;;;;;;16.95;57.25;102129.97;5106800;28;20072;-66
2022/06/28 04:56:16;;;;;;;2.83;1.25;;;;;;;16.95;57.53;102128.06;5103211;28;20305;-65
2022/06/28 04:58:44;;;;;;;8.68;2.10;;;;;;;16.95;57.53;102130.78;5103142;28;20066;-60
2022/06/28 05:01:12;;;;;;;2.85;1.60;;;;;;;16.96;57.56;102137.03;5105332;28;20067;-65
2022/06/28 05:03:42;;;;;;;6.25;1.58;;;;;;;16.83;57.32;102116.34;5104288;28;20044;-64
2022/06/28 05:06:12;;;;;;;3.53;1.30;;;;;;;16.94;57.49;102136.44;5105931;28;20123;-67
2022/06/28 05:08:40;;;;;;;5.50;2.22;;;;;;;16.96;57.53;102135.16;5104589;28;20048;-65
2022/06/28 05:11:08;;;;;;;1.92;1.10;;;;;;;16.97;57.79;102141.41;5115268;28;20383;-67
2022/06/28 05:13:36;;;;;;;6.82;1.50;;;;;;;16.98;57.66;102137.63;5105016;28;20064;-66
2022/06/28 05:16:05;;;;;;;9.15;1.60;;;;;;;16.96;57.77;102134.31;5114672;28;20051;-66
2022/06/28 05:18:32;;;;;;;2.30;1.25;;;;;;;17.00;57.67;102139.06;5118804;28;20123;-65
2022/06/28 05:21:00;;;;;;;5.97;1.83;;;;;;;17.02;57.92;102136.94;5121683;28;20039;-65
2022/06/28 05:23:30;;;;;;;3.83;1.63;;;;;;;17.04;57.72;102136.69;5112353;28;20043;-65
2022/06/28 05:25:57;;;;;;;5.97;1.75;;;;;;;17.05;57.70;102131.03;5116513;28;20087;-65
2022/06/28 05:28:25;;;;;;;6.97;1.60;;;;;;;17.07;57.67;102130.81;5109650;28;20082;-65
2022/06/28 05:30:53;;;;;;;6.45;2.00;;;;;;;17.09;57.74;102131.41;5122966;28;20100;-65
2022/06/28 05:33:21;;;;;;;7.90;1.58;;;;;;;17.10;57.68;102127.63;5107939;28;20563;-65
2022/06/28 05:35:49;;;;;;;7.20;1.92;;;;;;;17.13;57.69;102127.16;5114152;28;20052;-64
2022/06/28 05:38:17;;;;;;;6.68;1.50;;;;;;;17.16;57.48;102129.41;5124471;28;20066;-65
2022/06/28 05:40:46;;;;;;;3.92;1.45;;;;;;;17.18;57.62;102122.69;5115740;28;20075;-64
2022/06/28 05:43:14;;;;;;;6.03;1.55;;;;;;;17.18;57.64;102113.69;5121893;28;20048;-65
2022/06/28 05:45:42;;;;;;;4.22;1.55;;;;;;;17.22;57.58;102126.56;5117695;28;20044;-65
2022/06/28 05:48:09;;;;;;;4.88;1.95;;;;;;;17.24;57.64;102120.91;5120465;28;20063;-64
2022/06/28 05:50:37;;;;;;;4.85;2.03;;;;;;;17.25;57.57;102117.13;5117599;28;20079;-64
2022/06/28 05:53:05;;;;;;;7.45;1.67;;;;;;;17.26;57.44;102110.63;5119015;28;20053;-64
2022/06/28 05:55:33;;;;;;;5.80;1.50;;;;;;;17.28;57.66;102108.50;4750292;27;10000452;-65
2022/06/28 05:58:02;;;;;;;8.60;2.75;;;;;;;17.30;57.46;102103.66;5108178;28;20082;-66
2022/06/28 06:00:30;;;;;;;9.15;2.35;;;;;;;17.32;57.48;102106.16;5117089;27;20078;-65
2022/06/28 06:02:58;;;;;;;7.65;2.22;;;;;;;17.35;57.48;102108.34;5119596;28;20175;-65
2022/06/28 06:05:26;;;;;;;6.18;1.40;;;;;;;17.37;57.55;102115.22;5104691;27;20051;-65
2022/06/28 06:07:54;;;;;;;7.28;1.95;;;;;;;17.40;57.44;102108.47;5114303;28;20050;-65
2022/06/28 06:10:21;;;;;;;6.60;1.45;;;;;;;17.42;57.55;102114.50;5114059;28;20052;-65
2022/06/28 06:12:49;;;;;;;5.22;1.70;;;;;;;17.44;57.50;102117.81;5117074;27;20055;-66
2022/06/28 06:15:18;;;;;;;6.38;1.98;;;;;;;17.46;57.53;102118.41;5116871;27;20055;-64
2022/06/28 06:17:46;;;;;;;11.00;1.65;;;;;;;17.50;57.49;102114.97;5119414;27;20086;-64
2022/06/28 06:20:14;;;;;;;5.78;2.05;;;;;;;17.52;57.64;102117.47;5129477;27;20066;-64
2022/06/28 06:22:41;;;;;;;5.90;1.90;;;;;;;17.54;57.47;102121.59;5115086;27;20472;-64
2022/06/28 06:25:10;;;;;;;10.70;2.00;;;;;;;17.56;57.51;102124.91;5111094;27;20058;-63
2022/06/28 06:27:38;;;;;;;8.15;2.58;;;;;;;17.60;57.40;102125.25;5115128;27;20086;-63
2022/06/28 06:30:07;;;;;;;8.68;1.80;;;;;;;17.63;57.34;102123.94;5114151;28;20074;-64
2022/06/28 06:32:36;;;;;;;6.97;2.90;;;;;;;17.63;57.35;102116.63;5123518;28;20040;-63
2022/06/28 06:35:07;;;;;;;5.63;1.83;;;;;;;17.67;57.20;102127.88;5114204;27;20048;-64
2022/06/28 06:37:34;;;;;;;4.00;1.60;;;;;;;17.70;57.26;102127.41;5125219;28;20065;-64
2022/06/28 06:40:02;;;;;;;6.28;1.85;;;;;;;17.71;57.26;102138.03;5120714;28;20044;-63
2022/06/28 06:42:30;;;;;;;7.82;2.13;;;;;;;17.74;57.26;102131.31;5113439;28;20036;-64
2022/06/28 06:44:58;;;;;;;4.78;1.58;;;;;;;17.76;57.32;102130.00;5123686;27;20039;-63
2022/06/28 06:47:26;;;;;;;7.07;1.80;;;;;;;17.81;57.37;102132.00;5118314;28;20433;-64
2022/06/28 06:49:55;;;;;;;7.20;1.65;;;;;;;17.82;57.26;102129.03;5124467;27;20044;-63
2022/06/28 06:52:23;;;;;;;6.80;1.83;;;;;;;17.86;57.41;102129.41;5125189;28;20082;-63
2022/06/28 06:54:51;;;;;;;3.88;1.60;;;;;;;17.85;57.38;102133.19;5117454;28;20050;-64
2022/06/28 06:57:22;;;;;;;6.25;1.95;;;;;;;17.89;57.42;102140.63;5124814;27;20137;-63
2022/06/28 06:59:50;;;;;;;5.32;1.52;;;;;;;17.91;57.45;102137.66;5109608;28;20043;-64
2022/06/28 07:02:18;;;;;;;5.40;1.45;;;;;;;17.94;57.51;102139.09;5122045;28;20048;-63
2022/06/28 07:04:46;;;;;;;6.93;1.65;;;;;;;17.96;57.59;102140.50;5128423;27;20051;-64
2022/06/28 07:07:15;;;;;;;4.10;1.30;;;;;;;17.97;57.53;102142.16;5118255;27;20119;-64
2022/06/28 07:09:42;;;;;;;6.32;1.80;;;;;;;17.99;57.45;102142.72;5116528;28;20072;-64
2022/06/28 07:12:11;;;;;;;6.45;1.70;;;;;;;18.00;57.65;102141.66;5114760;27;20122;-64
2022/06/28 07:14:39;;;;;;;4.95;1.50;;;;;;;18.03;57.66;102140.38;5125044;28;20051;-64
2022/06/28 07:17:07;;;;;;;7.68;1.90;;;;;;;18.03;57.76;102138.47;5124857;28;20052;-64
2022/06/28 07:19:35;;;;;;;4.70;1.38;;;;;;;18.05;57.72;102133.63;5127127;27;20043;-64
2022/06/28 07:22:02;;;;;;;5.82;2.00;;;;;;;18.09;57.84;102142.94;5115646;27;20044;-64
2022/06/28 07:24:31;;;;;;;2.65;1.67;;;;;;;18.11;57.75;102140.81;5125046;28;20078;-64
2022/06/28 07:26:59;;;;;;;8.15;1.67;;;;;;;18.10;57.61;102138.34;5123941;28;20043;-64
2022/06/28 07:29:27;;;;;;;4.68;1.58;;;;;;;18.08;57.78;102129.59;5117670;28;20059;-64
2022/06/28 07:31:55;;;;;;;3.13;1.27;;;;;;;18.14;57.67;102147.69;5107926;28;20047;-64
2022/06/28 07:34:22;;;;;;;3.20;1.33;;;;;;;18.15;57.63;102139.28;5117772;27;20074;-64
2022/06/28 07:36:51;;;;;;;3.30;1.35;;;;;;;18.16;57.71;102143.66;5104155;28;20147;-64
2022/06/28 07:39:19;;;;;;;4.15;1.40;;;;;;;18.17;57.72;102141.75;5106411;28;20087;-63
2022/06/28 07:41:48;;;;;;;4.05;1.55;;;;;;;18.17;57.51;102141.75;5112444;27;20102;-64
2022/06/28 07:44:16;;;;;;;5.20;1.30;;;;;;;18.17;57.70;102144.47;5103406;28;20477;-64
2022/06/28 07:46:43;;;;;;;3.55;1.20;;;;;;;18.18;57.54;102140.69;5113653;28;20083;-64
2022/06/28 07:49:11;;;;;;;8.05;2.42;;;;;;;18.18;57.80;102138.78;5107335;28;20052;-64
2022/06/28 07:54:24;;;;;;;5.63;1.83;;;;;;;18.20;58.03;102138.53;5110694;28;20048;-64
2022/06/28 07:56:54;;;;;;;4.68;1.83;;;;;;;18.21;57.76;102141.03;5124042;28;20090;-64
2022/06/28 07:59:21;;;;;;;2.70;1.08;;;;;;;18.23;57.85;102131.78;5119459;28;20086;-64
2022/06/28 08:01:49;;;;;;;4.10;1.60;;;;;;;18.24;57.85;102134.28;5120488;27;20083;-64
2022/06/28 08:04:17;;;;;;;3.63;1.45;;;;;;;18.25;57.64;102126.94;5103658;28;20130;-64
2022/06/28 08:06:45;;;;;;;4.68;1.40;;;;;;;18.26;57.82;102126.69;5118277;27;20055;-64
2022/06/28 08:09:12;;;;;;;3.83;1.63;;;;;;;18.27;57.82;102119.34;5112733;28;20056;-64
2022/06/28 08:11:40;;;;;;;5.95;1.63;;;;;;;18.28;57.70;102126.47;5133741;27;20043;-64
2022/06/28 08:14:11;;;;;;;4.93;1.80;;;;;;;18.29;57.67;102128.94;5109629;27;20070;-64
2022/06/28 08:16:39;;;;;;;4.20;1.40;;;;;;;18.28;57.59;102118.28;5123857;28;20051;-63
2022/06/28 08:19:07;;;;;;;5.20;2.10;;;;;;;18.29;57.17;102117.22;5123216;28;20161;-64
2022/06/28 08:21:38;;;;;;;6.22;1.55;;;;;;;18.28;56.84;102110.13;5127648;27;20047;-63
2022/06/28 08:24:06;;;;;;;5.15;1.33;;;;;;;18.29;57.21;102111.78;5120595;28;20050;-63
2022/06/28 08:26:40;;;;;;;9.80;1.90;;;;;;;18.32;57.18;102108.56;5117944;28;20081;-64
2022/06/28 08:29:10;;;;;;;4.97;1.48;;;;;;;18.33;57.22;102105.59;5122911;28;20085;-63
2022/06/28 08:31:37;;;;;;;6.57;1.92;;;;;;;18.35;56.89;102100.75;5128385;27;20150;-63
2022/06/28 08:34:05;;;;;;;4.47;1.58;;;;;;;18.37;56.40;102103.22;5119365;28;20044;-63
2022/06/28 08:36:33;;;;;;;2.92;1.20;;;;;;;18.37;56.17;102101.34;5110780;28;20044;-63
2022/06/28 08:39:03;;;;;;;3.53;1.20;;;;;;;18.40;56.61;102102.75;5115943;28;20130;-64
2022/06/28 08:41:33;;;;;;;4.80;1.35;;;;;;;18.44;56.32;102098.47;5116521;28;20048;-62
2022/06/28 08:44:02;;;;;;;4.30;1.23;;;;;;;18.48;56.79;102099.63;5109220;28;20044;-62
2022/06/28 08:46:34;;;;;;;4.10;1.10;;;;;;;18.49;56.88;102096.66;5124072;27;20047;-63
2022/06/28 08:49:04;;;;;;;2.00;1.20;;;;;;;18.52;56.79;102098.91;5102869;28;20051;-63
2022/06/28 08:51:34;;;;;;;3.40;1.73;;;;;;;18.48;57.07;102081.41;5126912;27;20133;-63
2022/06/28 08:54:03;;;;;;;4.00;1.10;;;;;;;18.46;57.28;102074.53;5112472;27;20093;-63
2022/06/28 08:56:31;;;;;;;3.55;1.10;;;;;;;18.54;57.20;102085.88;5115067;28;20044;-63
2022/06/28 08:59:01;;;;;;;5.95;1.30;;;;;;;18.62;57.03;102089.28;5103202;27;20052;-63
2022/06/28 09:01:29;;;;;;;3.58;1.00;;;;;;;18.64;56.91;102090.69;5102340;28;20044;-63
2022/06/28 09:04:01;;;;;;;4.60;1.40;;;;;;;18.67;57.13;102092.09;5122495;28;20039;-63
2022/06/28 09:06:29;;;;;;;3.65;1.20;;;;;;;18.70;57.23;102094.34;5128314;27;20043;-67
2022/06/28 09:08:56;;;;;;;6.63;1.55;;;;;;;18.76;58.05;102085.19;5115815;28;20051;-63
2022/06/28 09:11:24;;;;;;;4.28;1.17;;;;;;;18.77;57.13;102081.38;5123089;28;20452;-64
2022/06/28 09:13:52;;;;;;;2.20;1.17;;;;;;;18.82;57.42;102081.47;5108739;28;20055;-64
2022/06/28 09:16:20;;;;;;;3.05;1.08;;;;;;;18.85;57.08;102073.63;5133544;28;20523;-64
2022/06/28 09:18:49;;;;;;;4.13;1.20;;;;;;;18.87;57.25;102067.94;5109698;28;20123;-63
2022/06/28 09:21:19;;;;;;;2.95;1.13;;;;;;;18.91;57.11;102069.09;5122670;28;20047;-63
2022/06/28 09:23:49;;;;;;;4.93;1.30;;;;;;;18.92;57.39;102078.09;5111683;28;20039;-63
2022/06/28 09:26:20;;;;;;;3.95;1.45;;;;;;;18.91;56.80;102069.09;5111205;28;20044;-64
2022/06/28 09:28:50;;;;;;;3.22;1.00;;;;;;;18.90;56.83;102061.16;5101856;28;20496;-63
2022/06/28 09:31:20;;;;;;;5.10;1.20;;;;;;;18.84;56.38;102055.63;5124303;28;20086;-63
2022/06/28 09:34:03;;;;;;;4.65;1.10;;;;;;;18.92;56.29;102064.47;5116557;28;20052;-63
2022/06/28 09:36:35;;;;;;;1.73;0.82;;;;;;;18.93;56.58;102064.22;5120249;27;20047;-63
2022/06/28 09:39:14;;;;;;;1.90;0.75;;;;;;;18.94;56.73;102056.88;5114451;27;20047;-63
2022/06/28 09:41:45;;;;;;;4.00;1.15;;;;;;;18.93;56.76;102052.50;5112669;28;20097;-63
2022/06/28 09:44:32;;;;;;;4.50;1.30;;;;;;;18.92;56.59;102045.41;5125999;27;20044;-63
2022/06/28 09:47:00;;;;;;;3.50;1.23;;;;;;;19.07;57.55;102054.63;5123013;27;20072;-64
2022/06/28 09:49:29;;;;;;;2.85;1.02;;;;;;;19.13;56.95;102055.50;5126862;28;20093;-63
2022/06/28 09:52:01;;;;;;;3.60;1.20;;;;;;;19.15;57.17;102045.19;5128402;27;20050;-64
2022/06/28 09:54:29;;;;;;;3.05;1.05;;;;;;;19.19;56.93;102041.72;5131651;27;20043;-63
2022/06/28 09:56:58;;;;;;;1.88;1.00;;;;;;;19.23;57.08;102041.22;5125663;28;20051;-63
2022/06/28 09:59:28;;;;;;;3.45;1.13;;;;;;;19.26;56.83;102040.72;5126535;28;20047;-63
2022/06/28 10:01:57;;;;;;;3.33;0.80;;;;;;;19.29;57.02;102042.94;5125291;28;20058;-64
2022/06/28 10:04:27;;;;;;;2.50;0.77;;;;;;;19.30;56.84;102036.41;5120055;27;20097;-63
2022/06/28 10:06:55;;;;;;;1.40;0.88;;;;;;;19.37;57.05;102042.50;5123384;27;20043;-63
2022/06/28 10:09:24;;;;;;;1.48;0.80;;;;;;;19.38;57.09;102038.72;5122132;28;20047;-63
2022/06/28 10:17:44;;;;;;;3.03;0.70;;;;;;;19.45;56.94;102036.63;5105609;28;20078;-63
2022/06/28 10:20:16;;;;;;;0.93;0.60;;;;;;;19.43;56.67;102030.59;5123518;28;20138;-63
2022/06/28 10:22:44;;;;;;;3.45;1.95;;;;;;;19.43;56.01;102022.41;5127099;27;20480;-63
2022/06/28 10:25:18;;;;;;;1.48;0.93;;;;;;;19.46;56.12;102033.66;5122980;27;20044;-64
2022/06/28 10:27:48;;;;;;;2.50;0.85;;;;;;;19.49;56.35;102026.88;5124938;28;20546;-63
2022/06/28 10:30:24;;;;;;;1.48;0.85;;;;;;;19.53;56.33;102024.50;5125712;28;20073;-63
2022/06/28 10:32:56;;;;;;;3.83;1.00;;;;;;;19.56;56.54;102013.06;5122429;27;20043;-63
2022/06/28 10:35:53;;;;;;;1.90;0.85;;;;;;;19.67;56.97;102015.69;5123574;28;21065;-63
2022/06/28 10:38:21;;;;;;;2.10;0.90;;;;;;;19.75;56.93;102008.94;5128481;27;20048;-63
2022/06/28 10:40:50;;;;;;;3.38;1.35;;;;;;;19.80;56.88;102006.28;5125342;28;20048;-63
2022/06/28 10:43:43;;;;;;;1.85;1.00;;;;;;;19.86;56.83;101996.25;5119290;28;20056;-63
2022/06/28 10:46:11;;;;;;;5.38;0.80;;;;;;;19.93;56.92;101994.16;5119479;27;20082;-63
2022/06/28 10:49:03;;;;;;;3.00;0.82;;;;;;;19.98;57.02;101997.75;5111993;28;20058;-63
2022/06/28 10:51:31;;;;;;;2.85;0.90;;;;;;;19.97;57.15;101981.63;5124016;28;20051;-63
2022/06/28 10:54:01;;;;;;;2.50;0.93;;;;;;;20.02;56.94;101981.69;5114453;27;20039;-63
2022/06/28 10:56:31;;;;;;;1.92;0.95;;;;;;;20.08;56.72;101980.66;5116984;28;20047;-63
2022/06/28 10:59:02;;;;;;;3.47;1.35;;;;;;;20.12;56.83;101985.34;5122627;28;20157;-63
2022/06/28 11:01:56;;;;;;;3.72;1.10;;;;;;;20.14;56.91;101979.63;5124499;28;20043;-63
2022/06/28 11:04:27;;;;;;;2.00;0.98;;;;;;;20.13;56.96;101975.25;5133064;27;20126;-63
2022/06/28 11:06:57;;;;;;;1.23;0.82;;;;;;;20.19;56.31;101974.22;5110089;28;20075;-63
2022/06/28 11:09:34;;;;;;;1.63;0.68;;;;;;;20.22;56.61;101970.16;5133077;27;20058;-63
2022/06/28 11:12:09;;;;;;;5.20;1.05;;;;;;;20.27;56.32;101970.19;5120546;27;20098;-64
2022/06/28 11:14:47;;;;;;;4.22;1.30;;;;;;;20.29;55.74;101962.56;5113121;28;20079;-64
2022/06/28 11:17:17;;;;;;;2.90;1.00;;;;;;;20.32;55.79;101962.06;5124933;28;20081;-64
2022/06/28 11:19:53;;;;;;;1.50;1.05;;;;;;;20.21;56.14;101939.28;5124798;28;20052;-63
2022/06/28 11:22:21;;;;;;;;;;;;;;;20.39;56.28;101954.50;5110813;27;20062;-64
2022/06/28 11:24:50;;;;;;;3.47;0.88;;;;;;;20.44;56.21;101957.28;5111096;28;19920;-64
2022/06/28 11:27:22;;;;;;;3.92;1.13;;;;;;;20.48;55.68;101944.75;5124059;28;20051;-64
2022/06/28 11:30:03;;;;;;;2.25;1.00;;;;;;;20.50;55.58;101944.47;5123620;28;20047;-64
2022/06/28 11:32:33;;;;;;;3.42;0.90;;;;;;;20.53;56.12;101942.06;5108463;28;20052;-63
2022/06/28 11:35:04;;;;;;;2.83;0.95;;;;;;;20.58;56.27;101938.53;5111373;28;20040;-64
2022/06/28 11:37:34;;;;;;;2.58;1.02;;;;;;;20.66;56.52;101938.88;5120870;28;20074;-64
2022/06/28 11:40:04;;;;;;;2.00;0.95;;;;;;;20.74;56.12;101940.28;5118367;27;20044;-63
2022/06/28 11:42:33;;;;;;;1.48;0.90;;;;;;;20.83;56.39;101933.22;5103128;28;20067;-64
2022/06/28 11:45:01;;;;;;;1.15;0.77;;;;;;;20.91;56.59;101932.72;5104115;28;20056;-64
2022/06/28 11:47:30;;;;;;;1.88;0.70;;;;;;;20.97;56.16;101930.84;5106507;28;20051;-63
2022/06/28 11:50:17;;;;;;;1.92;1.10;;;;;;;20.99;55.13;101925.94;5131666;27;20051;-64
2022/06/28 11:52:47;;;;;;;2.33;0.90;;;;;;;20.97;54.95;101926.19;5110801;28;20048;-64